sensor_id;sensor_type;location;lat;lon;timestamp;temperature;humidity
285;DHT22;127;48.770;9.212;2022-07-19T00:00:30;21.50;99.90
285;DHT22;127;48.770;9.212;2022-07-19T00:02:59;21.50;99.90
285;DHT22;127;48.770;9.212;2022-07-19T00:05:28;21.50;99.90
285;DHT22;127;48.770;9.212;2022-07-19T00:07:56;21.40;99.90
285;DHT22;127;48.770;9.212;2022-07-19T00:10:25;21.30;99.90
285;DHT22;127;48.770;9.212;2022-07-19T00:12:54;21.30;99.90
285;DHT22;127;48.770;9.212;2022-07-19T00:15:26;21.20;99.90
285;DHT22;127;48.770;9.212;2022-07-19T00:17:54;21.20;99.90
285;DHT22;127;48.770;9.212;2022-07-19T00:20:23;21.00;99.90
285;DHT22;127;48.770;9.212;2022-07-19T00:22:52;21.00;99.90
285;DHT22;127;48.770;9.212;2022-07-19T00:25:21;20.90;99.90
285;DHT22;127;48.770;9.212;2022-07-19T00:27:49;20.80;99.90
285;DHT22;127;48.770;9.212;2022-07-19T00:30:18;20.80;99.90
285;DHT22;127;48.770;9.212;2022-07-19T00:32:49;20.70;99.90
285;DHT22;127;48.770;9.212;2022-07-19T00:35:18;20.50;99.90
285;DHT22;127;48.770;9.212;2022-07-19T00:37:47;20.50;99.90
285;DHT22;127;48.770;9.212;2022-07-19T00:40:22;20.30;99.90
285;DHT22;127;48.770;9.212;2022-07-19T00:42:52;20.30;99.90
285;DHT22;127;48.770;9.212;2022-07-19T00:45:20;20.20;99.90
285;DHT22;127;48.770;9.212;2022-07-19T00:47:52;20.20;99.90
285;DHT22;127;48.770;9.212;2022-07-19T00:50:22;20.10;99.90
285;DHT22;127;48.770;9.212;2022-07-19T00:52:52;20.00;99.90
285;DHT22;127;48.770;9.212;2022-07-19T00:55:22;20.00;99.90
285;DHT22;127;48.770;9.212;2022-07-19T00:57:53;20.00;99.90
285;DHT22;127;48.770;9.212;2022-07-19T01:00:23;20.00;99.90
285;DHT22;127;48.770;9.212;2022-07-19T01:02:55;20.00;99.90
285;DHT22;127;48.770;9.212;2022-07-19T01:05:23;20.00;99.90
285;DHT22;127;48.770;9.212;2022-07-19T01:07:52;19.90;99.90
285;DHT22;127;48.770;9.212;2022-07-19T01:10:21;19.90;99.90
285;DHT22;127;48.770;9.212;2022-07-19T01:12:50;19.90;99.90
285;DHT22;127;48.770;9.212;2022-07-19T01:15:21;19.80;99.90
285;DHT22;127;48.770;9.212;2022-07-19T01:17:54;19.80;99.90
285;DHT22;127;48.770;9.212;2022-07-19T01:20:24;19.80;99.90
285;DHT22;127;48.770;9.212;2022-07-19T01:22:56;19.80;99.90
285;DHT22;127;48.770;9.212;2022-07-19T01:25:26;19.70;99.90
285;DHT22;127;48.770;9.212;2022-07-19T01:27:56;19.70;99.90
285;DHT22;127;48.770;9.212;2022-07-19T01:30:25;19.60;99.90
285;DHT22;127;48.770;9.212;2022-07-19T01:32:55;19.60;99.90
285;DHT22;127;48.770;9.212;2022-07-19T01:35:25;19.60;99.90
285;DHT22;127;48.770;9.212;2022-07-19T01:37:57;19.50;99.90
285;DHT22;127;48.770;9.212;2022-07-19T01:40:26;19.60;99.90
285;DHT22;127;48.770;9.212;2022-07-19T01:42:55;19.60;99.90
285;DHT22;127;48.770;9.212;2022-07-19T01:45:24;19.70;99.90
285;DHT22;127;48.770;9.212;2022-07-19T01:47:52;19.60;99.90
285;DHT22;127;48.770;9.212;2022-07-19T01:50:21;19.60;99.90
285;DHT22;127;48.770;9.212;2022-07-19T01:52:50;19.60;99.90
285;DHT22;127;48.770;9.212;2022-07-19T01:55:21;19.60;99.90
285;DHT22;127;48.770;9.212;2022-07-19T01:57:50;19.60;99.90
285;DHT22;127;48.770;9.212;2022-07-19T02:00:19;19.60;99.90
285;DHT22;127;48.770;9.212;2022-07-19T02:02:48;19.60;99.90
285;DHT22;127;48.770;9.212;2022-07-19T02:05:16;19.60;99.90
285;DHT22;127;48.770;9.212;2022-07-19T02:07:45;19.60;99.90
285;DHT22;127;48.770;9.212;2022-07-19T02:10:14;19.60;99.90
285;DHT22;127;48.770;9.212;2022-07-19T02:12:46;19.60;99.90
285;DHT22;127;48.770;9.212;2022-07-19T02:15:15;19.60;99.90
285;DHT22;127;48.770;9.212;2022-07-19T02:17:43;19.60;99.90
285;DHT22;127;48.770;9.212;2022-07-19T02:20:12;19.50;99.90
285;DHT22;127;48.770;9.212;2022-07-19T02:22:41;19.50;99.90
285;DHT22;127;48.770;9.212;2022-07-19T02:25:10;19.40;99.90
285;DHT22;127;48.770;9.212;2022-07-19T02:27:39;19.40;99.90
285;DHT22;127;48.770;9.212;2022-07-19T02:30:11;19.40;99.90
285;DHT22;127;48.770;9.212;2022-07-19T02:32:42;19.40;99.90
285;DHT22;127;48.770;9.212;2022-07-19T02:35:12;19.40;99.90
285;DHT22;127;48.770;9.212;2022-07-19T02:37:42;19.40;99.90
285;DHT22;127;48.770;9.212;2022-07-19T02:40:11;19.30;99.90
285;DHT22;127;48.770;9.212;2022-07-19T02:42:39;19.20;99.90
285;DHT22;127;48.770;9.212;2022-07-19T02:45:11;19.30;99.90
285;DHT22;127;48.770;9.212;2022-07-19T02:47:40;19.20;99.90
285;DHT22;127;48.770;9.212;2022-07-19T02:50:09;19.20;99.90
285;DHT22;127;48.770;9.212;2022-07-19T02:52:37;19.20;99.90
285;DHT22;127;48.770;9.212;2022-07-19T02:55:07;19.10;99.90
285;DHT22;127;48.770;9.212;2022-07-19T02:57:36;19.20;99.90
285;DHT22;127;48.770;9.212;2022-07-19T03:00:06;19.20;99.90
285;DHT22;127;48.770;9.212;2022-07-19T03:02:38;19.30;99.90
285;DHT22;127;48.770;9.212;2022-07-19T03:05:08;19.20;99.90
285;DHT22;127;48.770;9.212;2022-07-19T03:07:36;19.20;99.90
285;DHT22;127;48.770;9.212;2022-07-19T03:10:06;19.20;99.90
285;DHT22;127;48.770;9.212;2022-07-19T03:12:35;19.20;99.90
285;DHT22;127;48.770;9.212;2022-07-19T03:15:04;19.10;99.90
285;DHT22;127;48.770;9.212;2022-07-19T03:17:39;19.20;99.90
285;DHT22;127;48.770;9.212;2022-07-19T03:20:09;19.30;99.90
285;DHT22;127;48.770;9.212;2022-07-19T03:22:38;19.30;99.90
285;DHT22;127;48.770;9.212;2022-07-19T03:25:08;19.30;99.90
285;DHT22;127;48.770;9.212;2022-07-19T03:27:37;19.40;99.90
285;DHT22;127;48.770;9.212;2022-07-19T03:30:07;19.40;99.90
285;DHT22;127;48.770;9.212;2022-07-19T03:32:38;19.40;99.90
285;DHT22;127;48.770;9.212;2022-07-19T03:35:08;19.40;99.90
285;DHT22;127;48.770;9.212;2022-07-19T03:37:36;19.40;99.90
285;DHT22;127;48.770;9.212;2022-07-19T03:40:06;19.40;99.90
285;DHT22;127;48.770;9.212;2022-07-19T03:42:35;19.40;99.90
285;DHT22;127;48.770;9.212;2022-07-19T03:45:05;19.40;99.90
285;DHT22;127;48.770;9.212;2022-07-19T03:47:33;19.40;99.90
285;DHT22;127;48.770;9.212;2022-07-19T03:50:05;19.40;99.90
285;DHT22;127;48.770;9.212;2022-07-19T03:52:34;19.50;99.90
285;DHT22;127;48.770;9.212;2022-07-19T03:55:03;19.50;99.90
285;DHT22;127;48.770;9.212;2022-07-19T03:57:32;19.50;99.90
285;DHT22;127;48.770;9.212;2022-07-19T04:00:01;19.40;99.90
285;DHT22;127;48.770;9.212;2022-07-19T04:02:30;19.50;99.90
285;DHT22;127;48.770;9.212;2022-07-19T04:04:58;19.50;99.90
285;DHT22;127;48.770;9.212;2022-07-19T04:07:30;19.50;99.90
285;DHT22;127;48.770;9.212;2022-07-19T04:09:59;19.50;99.90
285;DHT22;127;48.770;9.212;2022-07-19T04:12:27;19.50;99.90
285;DHT22;127;48.770;9.212;2022-07-19T04:14:56;19.40;99.90
285;DHT22;127;48.770;9.212;2022-07-19T04:17:25;19.30;99.90
285;DHT22;127;48.770;9.212;2022-07-19T04:19:53;19.30;99.90
285;DHT22;127;48.770;9.212;2022-07-19T04:22:22;19.20;99.90
285;DHT22;127;48.770;9.212;2022-07-19T04:24:54;19.10;99.90
285;DHT22;127;48.770;9.212;2022-07-19T04:27:23;19.10;99.90
285;DHT22;127;48.770;9.212;2022-07-19T04:29:52;19.10;99.90
285;DHT22;127;48.770;9.212;2022-07-19T04:32:20;19.00;99.90
285;DHT22;127;48.770;9.212;2022-07-19T04:34:49;18.90;99.90
285;DHT22;127;48.770;9.212;2022-07-19T04:37:18;18.90;99.90
285;DHT22;127;48.770;9.212;2022-07-19T04:39:47;18.90;99.90
285;DHT22;127;48.770;9.212;2022-07-19T04:42:18;19.00;99.90
285;DHT22;127;48.770;9.212;2022-07-19T04:44:47;18.90;99.90
285;DHT22;127;48.770;9.212;2022-07-19T04:47:16;18.90;99.90
285;DHT22;127;48.770;9.212;2022-07-19T04:49:44;18.90;99.90
285;DHT22;127;48.770;9.212;2022-07-19T04:52:13;18.90;99.90
285;DHT22;127;48.770;9.212;2022-07-19T04:54:42;19.00;99.90
285;DHT22;127;48.770;9.212;2022-07-19T04:57:10;19.00;99.90
285;DHT22;127;48.770;9.212;2022-07-19T04:59:42;19.10;99.90
285;DHT22;127;48.770;9.212;2022-07-19T05:02:10;19.00;99.90
285;DHT22;127;48.770;9.212;2022-07-19T05:04:39;19.10;99.90
285;DHT22;127;48.770;9.212;2022-07-19T05:07:08;19.00;99.90
285;DHT22;127;48.770;9.212;2022-07-19T05:09:36;19.10;99.90
285;DHT22;127;48.770;9.212;2022-07-19T05:12:05;19.10;99.90
285;DHT22;127;48.770;9.212;2022-07-19T05:14:35;19.10;99.90
285;DHT22;127;48.770;9.212;2022-07-19T05:17:06;19.00;99.90
285;DHT22;127;48.770;9.212;2022-07-19T05:19:35;19.00;99.90
285;DHT22;127;48.770;9.212;2022-07-19T05:22:04;19.10;99.90
285;DHT22;127;48.770;9.212;2022-07-19T05:24:32;19.20;99.90
285;DHT22;127;48.770;9.212;2022-07-19T05:27:01;19.20;99.90
285;DHT22;127;48.770;9.212;2022-07-19T05:29:30;19.20;99.90
285;DHT22;127;48.770;9.212;2022-07-19T05:31:58;19.30;99.90
285;DHT22;127;48.770;9.212;2022-07-19T05:34:30;19.30;99.90
285;DHT22;127;48.770;9.212;2022-07-19T05:36:59;19.50;99.90
285;DHT22;127;48.770;9.212;2022-07-19T05:39:28;19.60;99.90
285;DHT22;127;48.770;9.212;2022-07-19T05:41:57;19.60;99.90
285;DHT22;127;48.770;9.212;2022-07-19T05:44:25;19.70;99.90
285;DHT22;127;48.770;9.212;2022-07-19T05:47:15;19.80;99.90
285;DHT22;127;48.770;9.212;2022-07-19T05:49:47;19.90;99.90
285;DHT22;127;48.770;9.212;2022-07-19T05:52:16;20.00;99.90
285;DHT22;127;48.770;9.212;2022-07-19T05:54:45;20.00;99.90
285;DHT22;127;48.770;9.212;2022-07-19T05:57:14;20.10;99.90
285;DHT22;127;48.770;9.212;2022-07-19T05:59:43;20.20;99.90
285;DHT22;127;48.770;9.212;2022-07-19T06:02:11;20.30;99.90
285;DHT22;127;48.770;9.212;2022-07-19T06:04:40;20.50;99.90
285;DHT22;127;48.770;9.212;2022-07-19T06:07:11;20.60;99.90
285;DHT22;127;48.770;9.212;2022-07-19T06:09:40;20.70;99.90
285;DHT22;127;48.770;9.212;2022-07-19T06:12:09;20.80;99.90
285;DHT22;127;48.770;9.212;2022-07-19T06:14:37;20.90;99.90
285;DHT22;127;48.770;9.212;2022-07-19T06:17:06;21.00;99.90
285;DHT22;127;48.770;9.212;2022-07-19T06:19:35;21.20;99.90
285;DHT22;127;48.770;9.212;2022-07-19T06:22:04;21.30;99.90
285;DHT22;127;48.770;9.212;2022-07-19T06:24:35;21.40;99.90
285;DHT22;127;48.770;9.212;2022-07-19T06:27:04;21.50;99.90
285;DHT22;127;48.770;9.212;2022-07-19T06:29:32;21.60;99.90
285;DHT22;127;48.770;9.212;2022-07-19T06:32:01;21.70;99.90
285;DHT22;127;48.770;9.212;2022-07-19T06:34:29;21.90;99.90
285;DHT22;127;48.770;9.212;2022-07-19T06:36:58;21.90;99.90
285;DHT22;127;48.770;9.212;2022-07-19T06:39:27;22.00;99.90
285;DHT22;127;48.770;9.212;2022-07-19T06:41:58;22.20;99.90
285;DHT22;127;48.770;9.212;2022-07-19T06:44:27;22.30;99.90
285;DHT22;127;48.770;9.212;2022-07-19T06:46:56;22.40;99.90
285;DHT22;127;48.770;9.212;2022-07-19T06:49:25;22.60;99.90
285;DHT22;127;48.770;9.212;2022-07-19T06:51:53;22.80;99.90
285;DHT22;127;48.770;9.212;2022-07-19T06:54:22;23.00;99.90
285;DHT22;127;48.770;9.212;2022-07-19T06:56:51;23.10;99.90
285;DHT22;127;48.770;9.212;2022-07-19T06:59:22;23.20;99.90
285;DHT22;127;48.770;9.212;2022-07-19T07:01:51;23.40;99.90
285;DHT22;127;48.770;9.212;2022-07-19T07:04:20;23.50;99.90
285;DHT22;127;48.770;9.212;2022-07-19T07:06:48;23.60;99.90
285;DHT22;127;48.770;9.212;2022-07-19T07:09:17;23.70;99.90
285;DHT22;127;48.770;9.212;2022-07-19T07:11:46;24.00;99.90
285;DHT22;127;48.770;9.212;2022-07-19T07:14:16;24.10;99.90
285;DHT22;127;48.770;9.212;2022-07-19T07:16:47;24.20;99.90
285;DHT22;127;48.770;9.212;2022-07-19T07:19:16;24.40;99.90
285;DHT22;127;48.770;9.212;2022-07-19T07:21:45;24.60;99.90
285;DHT22;127;48.770;9.212;2022-07-19T07:24:14;24.70;99.90
285;DHT22;127;48.770;9.212;2022-07-19T07:26:43;25.00;99.90
285;DHT22;127;48.770;9.212;2022-07-19T07:29:11;25.10;99.90
285;DHT22;127;48.770;9.212;2022-07-19T07:31:40;25.20;99.90
285;DHT22;127;48.770;9.212;2022-07-19T07:34:11;25.40;99.90
285;DHT22;127;48.770;9.212;2022-07-19T07:36:40;25.60;99.90
285;DHT22;127;48.770;9.212;2022-07-19T07:39:09;25.70;99.90
285;DHT22;127;48.770;9.212;2022-07-19T07:41:38;25.90;99.90
285;DHT22;127;48.770;9.212;2022-07-19T07:44:07;26.00;99.90
285;DHT22;127;48.770;9.212;2022-07-19T07:46:36;26.20;99.90
285;DHT22;127;48.770;9.212;2022-07-19T07:49:05;26.30;99.90
285;DHT22;127;48.770;9.212;2022-07-19T07:51:36;26.40;99.90
285;DHT22;127;48.770;9.212;2022-07-19T07:54:06;26.60;99.90
285;DHT22;127;48.770;9.212;2022-07-19T07:56:34;26.80;99.90
285;DHT22;127;48.770;9.212;2022-07-19T07:59:03;27.00;99.90
285;DHT22;127;48.770;9.212;2022-07-19T08:01:32;27.20;99.90
285;DHT22;127;48.770;9.212;2022-07-19T08:04:04;27.20;99.90
285;DHT22;127;48.770;9.212;2022-07-19T08:06:33;27.40;99.90
285;DHT22;127;48.770;9.212;2022-07-19T08:09:05;27.50;99.90
285;DHT22;127;48.770;9.212;2022-07-19T08:11:34;27.70;99.90
285;DHT22;127;48.770;9.212;2022-07-19T08:14:03;27.90;99.90
285;DHT22;127;48.770;9.212;2022-07-19T08:16:32;28.00;99.90
285;DHT22;127;48.770;9.212;2022-07-19T08:19:00;28.20;99.90
285;DHT22;127;48.770;9.212;2022-07-19T08:21:29;28.30;99.90
285;DHT22;127;48.770;9.212;2022-07-19T08:23:58;28.40;99.90
285;DHT22;127;48.770;9.212;2022-07-19T08:26:30;28.60;99.90
285;DHT22;127;48.770;9.212;2022-07-19T08:28:59;28.80;99.90
285;DHT22;127;48.770;9.212;2022-07-19T08:31:27;28.80;99.90
285;DHT22;127;48.770;9.212;2022-07-19T08:33:56;29.00;99.90
285;DHT22;127;48.770;9.212;2022-07-19T08:36:25;29.10;99.90
285;DHT22;127;48.770;9.212;2022-07-19T08:38:54;29.20;99.90
285;DHT22;127;48.770;9.212;2022-07-19T08:41:23;29.40;99.90
285;DHT22;127;48.770;9.212;2022-07-19T08:43:54;29.50;99.90
285;DHT22;127;48.770;9.212;2022-07-19T08:46:23;29.60;99.90
285;DHT22;127;48.770;9.212;2022-07-19T08:48:53;29.90;99.90
285;DHT22;127;48.770;9.212;2022-07-19T08:51:22;30.10;99.90
285;DHT22;127;48.770;9.212;2022-07-19T08:53:51;30.20;99.90
285;DHT22;127;48.770;9.212;2022-07-19T08:56:20;30.30;99.90
285;DHT22;127;48.770;9.212;2022-07-19T08:59:04;30.40;99.90
285;DHT22;127;48.770;9.212;2022-07-19T09:01:34;30.50;99.90
285;DHT22;127;48.770;9.212;2022-07-19T09:04:10;30.80;99.90
285;DHT22;127;48.770;9.212;2022-07-19T09:06:42;31.30;99.90
285;DHT22;127;48.770;9.212;2022-07-19T09:09:12;31.70;99.90
285;DHT22;127;48.770;9.212;2022-07-19T09:11:43;32.00;99.90
285;DHT22;127;48.770;9.212;2022-07-19T09:14:21;32.50;99.90
285;DHT22;127;48.770;9.212;2022-07-19T09:16:59;33.40;99.90
285;DHT22;127;48.770;9.212;2022-07-19T09:19:31;34.40;99.90
285;DHT22;127;48.770;9.212;2022-07-19T09:22:01;34.40;99.90
285;DHT22;127;48.770;9.212;2022-07-19T09:24:33;35.00;99.90
285;DHT22;127;48.770;9.212;2022-07-19T09:27:04;35.90;99.90
285;DHT22;127;48.770;9.212;2022-07-19T09:29:38;37.00;99.90
285;DHT22;127;48.770;9.212;2022-07-19T09:32:09;38.00;99.90
285;DHT22;127;48.770;9.212;2022-07-19T09:34:40;38.90;99.00
285;DHT22;127;48.770;9.212;2022-07-19T09:37:14;38.70;97.80
285;DHT22;127;48.770;9.212;2022-07-19T09:39:45;39.50;95.20
285;DHT22;127;48.770;9.212;2022-07-19T09:42:18;40.00;93.00
285;DHT22;127;48.770;9.212;2022-07-19T09:44:57;40.10;91.10
285;DHT22;127;48.770;9.212;2022-07-19T09:47:30;40.20;89.00
285;DHT22;127;48.770;9.212;2022-07-19T09:50:00;40.00;86.20
285;DHT22;127;48.770;9.212;2022-07-19T09:52:33;40.50;81.40
285;DHT22;127;48.770;9.212;2022-07-19T09:55:04;40.40;78.60
285;DHT22;127;48.770;9.212;2022-07-19T09:57:35;40.80;72.30
285;DHT22;127;48.770;9.212;2022-07-19T10:00:10;40.70;69.50
285;DHT22;127;48.770;9.212;2022-07-19T10:02:41;41.10;62.30
285;DHT22;127;48.770;9.212;2022-07-19T10:05:11;41.60;62.60
285;DHT22;127;48.770;9.212;2022-07-19T10:07:40;42.30;63.20
285;DHT22;127;48.770;9.212;2022-07-19T10:10:10;41.20;62.30
285;DHT22;127;48.770;9.212;2022-07-19T10:12:42;42.10;63.00
285;DHT22;127;48.770;9.212;2022-07-19T10:15:15;42.80;63.90
285;DHT22;127;48.770;9.212;2022-07-19T10:17:54;42.50;63.60
285;DHT22;127;48.770;9.212;2022-07-19T10:20:27;42.20;63.10
285;DHT22;127;48.770;9.212;2022-07-19T10:22:58;42.10;63.00
285;DHT22;127;48.770;9.212;2022-07-19T10:25:39;41.60;63.30
285;DHT22;127;48.770;9.212;2022-07-19T10:28:27;41.80;62.80
285;DHT22;127;48.770;9.212;2022-07-19T10:30:59;42.70;63.50
285;DHT22;127;48.770;9.212;2022-07-19T10:33:33;42.80;63.50
285;DHT22;127;48.770;9.212;2022-07-19T10:36:33;42.50;63.30
285;DHT22;127;48.770;9.212;2022-07-19T10:39:25;42.70;63.40
285;DHT22;127;48.770;9.212;2022-07-19T10:42:07;43.60;55.80
285;DHT22;127;48.770;9.212;2022-07-19T10:45:12;43.40;53.90
285;DHT22;127;48.770;9.212;2022-07-19T10:48:03;42.40;63.30
285;DHT22;127;48.770;9.212;2022-07-19T10:50:50;42.30;61.70
285;DHT22;127;48.770;9.212;2022-07-19T10:56:30;43.90;44.80
285;DHT22;127;48.770;9.212;2022-07-19T10:59:01;44.00;41.50
285;DHT22;127;48.770;9.212;2022-07-19T11:01:32;43.50;41.40
285;DHT22;127;48.770;9.212;2022-07-19T11:04:29;43.40;40.40
285;DHT22;127;48.770;9.212;2022-07-19T11:07:15;44.00;37.40
285;DHT22;127;48.770;9.212;2022-07-19T11:12:34;44.20;32.70
285;DHT22;127;48.770;9.212;2022-07-19T11:15:07;44.00;32.50
285;DHT22;127;48.770;9.212;2022-07-19T11:17:36;44.40;30.00
285;DHT22;127;48.770;9.212;2022-07-19T11:20:12;43.90;31.40
285;DHT22;127;48.770;9.212;2022-07-19T11:22:45;43.50;31.10
285;DHT22;127;48.770;9.212;2022-07-19T11:25:16;44.00;28.90
285;DHT22;127;48.770;9.212;2022-07-19T11:27:46;44.90;25.40
285;DHT22;127;48.770;9.212;2022-07-19T11:30:15;45.10;23.90
285;DHT22;127;48.770;9.212;2022-07-19T11:32:51;45.90;20.70
285;DHT22;127;48.770;9.212;2022-07-19T11:35:23;46.90;17.40
285;DHT22;127;48.770;9.212;2022-07-19T11:37:53;46.40;17.60
285;DHT22;127;48.770;9.212;2022-07-19T11:40:23;46.20;16.80
285;DHT22;127;48.770;9.212;2022-07-19T11:42:52;44.70;19.60
285;DHT22;127;48.770;9.212;2022-07-19T11:45:23;45.20;17.70
285;DHT22;127;48.770;9.212;2022-07-19T11:47:53;45.10;18.00
285;DHT22;127;48.770;9.212;2022-07-19T11:50:27;44.40;19.50
285;DHT22;127;48.770;9.212;2022-07-19T11:52:57;43.80;20.70
285;DHT22;127;48.770;9.212;2022-07-19T11:55:28;44.90;17.70
285;DHT22;127;48.770;9.212;2022-07-19T11:57:57;46.10;14.10
285;DHT22;127;48.770;9.212;2022-07-19T12:00:26;46.60;11.60
285;DHT22;127;48.770;9.212;2022-07-19T12:02:57;46.40;10.60
285;DHT22;127;48.770;9.212;2022-07-19T12:05:32;46.90;9.60
285;DHT22;127;48.770;9.212;2022-07-19T12:08:03;46.60;9.70
285;DHT22;127;48.770;9.212;2022-07-19T12:10:34;46.20;9.60
285;DHT22;127;48.770;9.212;2022-07-19T12:13:05;46.10;9.30
285;DHT22;127;48.770;9.212;2022-07-19T12:15:45;45.50;10.50
285;DHT22;127;48.770;9.212;2022-07-19T12:18:14;45.30;11.00
285;DHT22;127;48.770;9.212;2022-07-19T12:21:26;44.90;11.90
285;DHT22;127;48.770;9.212;2022-07-19T12:27:00;45.60;9.00
285;DHT22;127;48.770;9.212;2022-07-19T12:29:32;46.80;6.00
285;DHT22;127;48.770;9.212;2022-07-19T12:32:03;46.20;6.70
285;DHT22;127;48.770;9.212;2022-07-19T12:34:46;45.40;8.50
285;DHT22;127;48.770;9.212;2022-07-19T12:37:25;45.80;6.70
285;DHT22;127;48.770;9.212;2022-07-19T12:40:04;44.00;10.80
285;DHT22;127;48.770;9.212;2022-07-19T12:42:39;45.10;8.60
285;DHT22;127;48.770;9.212;2022-07-19T12:45:12;46.10;8.50
285;DHT22;127;48.770;9.212;2022-07-19T12:47:42;46.10;5.30
285;DHT22;127;48.770;9.212;2022-07-19T12:50:19;45.70;4.10
285;DHT22;127;48.770;9.212;2022-07-19T12:52:53;45.00;6.40
285;DHT22;127;48.770;9.212;2022-07-19T12:55:24;45.10;6.00
285;DHT22;127;48.770;9.212;2022-07-19T12:57:54;45.00;6.80
285;DHT22;127;48.770;9.212;2022-07-19T13:00:24;45.10;5.50
285;DHT22;127;48.770;9.212;2022-07-19T13:02:54;45.70;4.80
285;DHT22;127;48.770;9.212;2022-07-19T13:05:23;43.70;9.30
285;DHT22;127;48.770;9.212;2022-07-19T13:07:56;45.10;5.60
285;DHT22;127;48.770;9.212;2022-07-19T13:10:25;45.50;4.80
285;DHT22;127;48.770;9.212;2022-07-19T13:12:57;45.70;3.00
285;DHT22;127;48.770;9.212;2022-07-19T13:15:26;45.70;3.20
285;DHT22;127;48.770;9.212;2022-07-19T13:17:54;45.30;3.80
285;DHT22;127;48.770;9.212;2022-07-19T13:20:23;45.40;2.90
285;DHT22;127;48.770;9.212;2022-07-19T13:22:55;45.70;3.10
285;DHT22;127;48.770;9.212;2022-07-19T13:25:24;45.60;1.80
285;DHT22;127;48.770;9.212;2022-07-19T13:27:52;45.90;1.20
285;DHT22;127;48.770;9.212;2022-07-19T13:30:21;45.20;2.40
285;DHT22;127;48.770;9.212;2022-07-19T13:32:50;45.40;1.20
285;DHT22;127;48.770;9.212;2022-07-19T13:35:19;44.90;2.40
285;DHT22;127;48.770;9.212;2022-07-19T13:37:48;45.30;1.20
285;DHT22;127;48.770;9.212;2022-07-19T13:40:19;46.00;1.00
285;DHT22;127;48.770;9.212;2022-07-19T13:42:53;46.30;1.00
285;DHT22;127;48.770;9.212;2022-07-19T13:45:22;46.80;1.00
285;DHT22;127;48.770;9.212;2022-07-19T13:47:51;46.60;1.00
285;DHT22;127;48.770;9.212;2022-07-19T13:50:21;46.80;1.00
285;DHT22;127;48.770;9.212;2022-07-19T13:52:49;46.30;1.00
285;DHT22;127;48.770;9.212;2022-07-19T13:55:21;46.10;1.00
285;DHT22;127;48.770;9.212;2022-07-19T13:57:50;46.30;1.00
285;DHT22;127;48.770;9.212;2022-07-19T14:00:18;45.70;1.00
285;DHT22;127;48.770;9.212;2022-07-19T14:02:48;46.60;1.00
285;DHT22;127;48.770;9.212;2022-07-19T14:05:17;46.40;1.00
285;DHT22;127;48.770;9.212;2022-07-19T14:07:46;46.80;1.00
285;DHT22;127;48.770;9.212;2022-07-19T14:10:20;47.20;1.00
285;DHT22;127;48.770;9.212;2022-07-19T14:12:54;46.70;1.00
285;DHT22;127;48.770;9.212;2022-07-19T14:15:26;46.60;1.00
285;DHT22;127;48.770;9.212;2022-07-19T14:17:55;46.70;1.00
285;DHT22;127;48.770;9.212;2022-07-19T14:20:24;46.80;1.00
285;DHT22;127;48.770;9.212;2022-07-19T14:22:54;46.80;1.00
285;DHT22;127;48.770;9.212;2022-07-19T14:25:25;46.50;1.00
285;DHT22;127;48.770;9.212;2022-07-19T14:27:54;46.50;1.00
285;DHT22;127;48.770;9.212;2022-07-19T14:30:23;46.30;1.00
285;DHT22;127;48.770;9.212;2022-07-19T14:32:51;46.10;1.00
285;DHT22;127;48.770;9.212;2022-07-19T14:35:22;45.00;1.00
285;DHT22;127;48.770;9.212;2022-07-19T14:37:51;45.50;1.00
285;DHT22;127;48.770;9.212;2022-07-19T14:40:25;45.20;1.00
285;DHT22;127;48.770;9.212;2022-07-19T14:42:54;45.30;1.00
285;DHT22;127;48.770;9.212;2022-07-19T14:45:23;44.80;1.00
285;DHT22;127;48.770;9.212;2022-07-19T14:47:53;45.40;1.00
285;DHT22;127;48.770;9.212;2022-07-19T14:50:22;45.90;1.00
285;DHT22;127;48.770;9.212;2022-07-19T14:52:51;46.20;1.00
285;DHT22;127;48.770;9.212;2022-07-19T14:55:20;45.10;1.00
285;DHT22;127;48.770;9.212;2022-07-19T14:57:51;44.90;1.00
285;DHT22;127;48.770;9.212;2022-07-19T15:00:20;44.50;1.00
285;DHT22;127;48.770;9.212;2022-07-19T15:02:48;44.50;1.00
285;DHT22;127;48.770;9.212;2022-07-19T15:05:17;43.90;1.00
285;DHT22;127;48.770;9.212;2022-07-19T15:07:46;43.70;1.00
285;DHT22;127;48.770;9.212;2022-07-19T15:10:15;44.10;1.00
285;DHT22;127;48.770;9.212;2022-07-19T15:12:43;43.90;1.00
285;DHT22;127;48.770;9.212;2022-07-19T15:15:15;44.80;1.00
285;DHT22;127;48.770;9.212;2022-07-19T15:17:43;45.20;1.00
285;DHT22;127;48.770;9.212;2022-07-19T15:20:12;44.80;1.00
285;DHT22;127;48.770;9.212;2022-07-19T15:22:41;44.50;1.00
285;DHT22;127;48.770;9.212;2022-07-19T15:25:10;44.40;1.00
285;DHT22;127;48.770;9.212;2022-07-19T15:27:41;44.20;1.00
285;DHT22;127;48.770;9.212;2022-07-19T15:30:10;43.60;1.00
285;DHT22;127;48.770;9.212;2022-07-19T15:32:46;43.50;1.00
285;DHT22;127;48.770;9.212;2022-07-19T15:35:15;43.80;1.00
285;DHT22;127;48.770;9.212;2022-07-19T15:37:44;43.30;1.00
285;DHT22;127;48.770;9.212;2022-07-19T15:40:12;44.30;1.00
285;DHT22;127;48.770;9.212;2022-07-19T15:42:46;44.00;1.00
285;DHT22;127;48.770;9.212;2022-07-19T15:45:16;43.80;1.00
285;DHT22;127;48.770;9.212;2022-07-19T15:47:50;43.90;1.00
285;DHT22;127;48.770;9.212;2022-07-19T15:50:19;43.80;1.00
285;DHT22;127;48.770;9.212;2022-07-19T15:52:48;43.30;1.00
285;DHT22;127;48.770;9.212;2022-07-19T15:55:16;42.90;1.00
285;DHT22;127;48.770;9.212;2022-07-19T15:57:45;43.00;1.00
285;DHT22;127;48.770;9.212;2022-07-19T16:00:14;43.20;1.00
285;DHT22;127;48.770;9.212;2022-07-19T16:02:42;42.90;1.00
285;DHT22;127;48.770;9.212;2022-07-19T16:05:14;43.20;1.00
285;DHT22;127;48.770;9.212;2022-07-19T16:07:44;43.40;1.00
285;DHT22;127;48.770;9.212;2022-07-19T16:10:13;42.90;1.00
285;DHT22;127;48.770;9.212;2022-07-19T16:12:42;42.60;1.00
285;DHT22;127;48.770;9.212;2022-07-19T16:15:11;42.70;1.00
285;DHT22;127;48.770;9.212;2022-07-19T16:17:41;42.90;1.00
285;DHT22;127;48.770;9.212;2022-07-19T16:20:14;42.80;1.00
285;DHT22;127;48.770;9.212;2022-07-19T16:22:42;43.00;1.00
285;DHT22;127;48.770;9.212;2022-07-19T16:25:11;42.30;1.00
285;DHT22;127;48.770;9.212;2022-07-19T16:27:41;42.10;1.00
285;DHT22;127;48.770;9.212;2022-07-19T16:30:11;41.50;3.50
285;DHT22;127;48.770;9.212;2022-07-19T16:32:40;41.30;3.90
285;DHT22;127;48.770;9.212;2022-07-19T16:35:09;41.90;3.20
285;DHT22;127;48.770;9.212;2022-07-19T16:37:41;42.60;1.00
285;DHT22;127;48.770;9.212;2022-07-19T16:40:11;42.60;1.00
285;DHT22;127;48.770;9.212;2022-07-19T16:42:40;42.30;1.70
285;DHT22;127;48.770;9.212;2022-07-19T16:45:09;41.30;4.10
285;DHT22;127;48.770;9.212;2022-07-19T16:47:38;41.10;5.20
285;DHT22;127;48.770;9.212;2022-07-19T16:50:07;41.00;5.70
285;DHT22;127;48.770;9.212;2022-07-19T16:52:36;41.00;5.70
285;DHT22;127;48.770;9.212;2022-07-19T16:55:08;41.10;5.30
285;DHT22;127;48.770;9.212;2022-07-19T16:57:37;41.50;4.00
285;DHT22;127;48.770;9.212;2022-07-19T17:00:08;40.70;7.00
285;DHT22;127;48.770;9.212;2022-07-19T17:02:37;39.90;9.00
285;DHT22;127;48.770;9.212;2022-07-19T17:05:06;39.30;10.40
285;DHT22;127;48.770;9.212;2022-07-19T17:07:35;39.20;10.90
285;DHT22;127;48.770;9.212;2022-07-19T17:10:08;39.20;12.00